createdAt,value
2018-10-21T00:01:09.524Z,90.50
2018-10-21T00:03:39.683Z,90.00
2018-10-21T00:06:09.803Z,89.50
2018-10-21T00:08:39.842Z,90.00
2018-10-21T00:11:09.922Z,90.20
2018-10-21T00:13:40.002Z,90.70
2018-10-21T00:16:10.405Z,89.50
2018-10-21T00:18:40.362Z,89.50
2018-10-21T00:21:14.836Z,88.80
2018-10-21T00:23:44.487Z,88.50
2018-10-21T00:26:14.882Z,88.20
2018-10-21T00:28:45.182Z,87.60
2018-10-21T00:31:15.325Z,87.90
2018-10-21T00:33:45.166Z,88.90
2018-10-21T00:36:14.781Z,88.10
2018-10-21T00:38:44.555Z,88.30
2018-10-21T00:41:14.196Z,88.20
2018-10-21T00:43:43.595Z,87.50
2018-10-21T00:46:13.275Z,86.70
2018-10-21T00:48:42.975Z,86.80
2018-10-21T00:51:12.697Z,87.60
2018-10-21T00:53:42.236Z,91.50
2018-10-21T00:56:11.835Z,97.40
2018-10-21T00:58:41.475Z,99.20
2018-10-21T01:01:11.174Z,99.90
2018-10-21T01:03:41.174Z,99.90
2018-10-21T01:06:11.994Z,99.90
2018-10-21T01:08:41.755Z,99.90
2018-10-21T01:11:11.374Z,99.90
2018-10-21T01:13:40.921Z,99.90
2018-10-21T01:16:11.775Z,99.90
2018-10-21T01:18:43.575Z,99.90
2018-10-21T01:21:13.412Z,99.90
2018-10-21T01:23:42.876Z,99.90
2018-10-21T01:26:12.422Z,99.90
2018-10-21T01:28:42.054Z,99.90
2018-10-21T01:31:12.694Z,99.90
2018-10-21T01:33:43.135Z,99.90
2018-10-21T01:36:12.940Z,99.90
2018-10-21T01:38:42.474Z,99.90
2018-10-21T01:41:12.134Z,99.90
2018-10-21T01:43:41.935Z,99.90
2018-10-21T01:46:11.414Z,99.90
2018-10-21T01:48:41.096Z,99.90
2018-10-21T01:51:10.895Z,99.90
2018-10-21T01:53:40.494Z,99.90
2018-10-21T01:56:10.374Z,99.90
2018-10-21T01:58:40.075Z,99.90
2018-10-21T02:01:09.842Z,99.90
2018-10-21T02:03:39.363Z,99.90
2018-10-21T02:06:09.142Z,99.90
2018-10-21T02:08:38.872Z,99.90
2018-10-21T02:11:08.543Z,99.90
2018-10-21T02:13:38.382Z,99.90
2018-10-21T02:16:08.062Z,99.90
2018-10-21T02:18:37.503Z,99.90
2018-10-21T02:21:07.296Z,99.90
2018-10-21T02:23:37.004Z,99.90
2018-10-21T02:26:07.196Z,99.90
2018-10-21T02:28:36.882Z,99.90
2018-10-21T02:31:06.662Z,99.90
2018-10-21T02:33:36.369Z,99.90
2018-10-21T02:36:06.223Z,99.90
2018-10-21T02:38:35.785Z,99.90
2018-10-21T02:41:30.243Z,99.90
2018-10-21T02:44:00.148Z,99.90
2018-10-21T02:46:30.542Z,99.90
2018-10-21T02:49:01.224Z,99.90
2018-10-21T02:51:30.922Z,99.90
2018-10-21T02:54:00.602Z,99.90
2018-10-21T02:56:34.679Z,99.90
2018-10-21T02:59:04.536Z,99.90
2018-10-21T03:01:34.215Z,99.90
2018-10-21T03:04:03.982Z,99.90
2018-10-21T03:06:33.745Z,99.90
2018-10-21T03:09:03.562Z,99.90
2018-10-21T03:11:33.120Z,99.90
2018-10-21T03:14:02.717Z,99.90
2018-10-21T03:16:32.305Z,99.90
2018-10-21T03:19:01.996Z,99.90
2018-10-21T03:21:31.537Z,99.90
2018-10-21T03:24:01.176Z,99.90
2018-10-21T03:26:30.577Z,99.90
2018-10-21T03:29:00.318Z,99.90
2018-10-21T03:31:29.982Z,99.90
2018-10-21T03:34:00.060Z,99.90
2018-10-21T03:36:29.696Z,99.90
2018-10-21T03:38:59.357Z,99.90
2018-10-21T03:41:29.017Z,99.90
2018-10-21T03:43:58.536Z,99.90
2018-10-21T03:46:32.796Z,99.90
2018-10-21T03:49:03.478Z,99.90
2018-10-21T03:51:33.515Z,99.90
2018-10-21T03:54:03.181Z,99.90
2018-10-21T03:56:34.198Z,99.90
2018-10-21T03:59:03.796Z,99.90
2018-10-21T04:01:33.515Z,99.90
2018-10-21T04:04:03.154Z,99.90
2018-10-21T04:06:33.096Z,99.90
2018-10-21T04:09:03.257Z,99.90
2018-10-21T04:11:33.156Z,99.90
2018-10-21T04:14:02.617Z,99.90
2018-10-21T04:16:32.136Z,99.90
2018-10-21T04:19:01.796Z,99.90
2018-10-21T04:21:31.456Z,99.90
2018-10-21T04:24:01.018Z,99.90
2018-10-21T04:26:30.775Z,99.90
2018-10-21T04:29:00.576Z,99.90
2018-10-21T04:31:30.377Z,99.90
2018-10-21T04:34:00.152Z,99.90
2018-10-21T04:36:32.739Z,99.90
2018-10-21T04:40:21.624Z,99.90
2018-10-21T04:42:51.859Z,99.90
2018-10-21T04:45:23.097Z,99.90
2018-10-21T04:47:52.736Z,99.90
2018-10-21T04:50:22.459Z,99.90
2018-10-21T04:52:52.238Z,99.90
2018-10-21T04:55:21.814Z,99.90
2018-10-21T04:57:51.505Z,99.90
2018-10-21T05:00:21.212Z,99.90
2018-10-21T05:02:50.877Z,99.90
2018-10-21T05:05:20.677Z,99.90
2018-10-21T05:07:50.517Z,99.90
2018-10-21T05:10:28.296Z,99.90
2018-10-21T05:12:58.036Z,99.90
2018-10-21T05:15:29.056Z,99.90
2018-10-21T05:17:58.676Z,99.90
2018-10-21T05:20:28.056Z,99.90
2018-10-21T05:22:57.916Z,99.90
2018-10-21T05:25:28.740Z,99.90
2018-10-21T05:27:58.587Z,99.90
2018-10-21T05:30:29.215Z,99.90
2018-10-21T05:32:59.054Z,99.90
2018-10-21T05:35:28.775Z,99.90
2018-10-21T05:37:58.350Z,99.90
2018-10-21T05:40:28.053Z,99.90
2018-10-21T05:42:57.596Z,99.90
2018-10-21T05:45:27.195Z,99.90
2018-10-21T05:47:56.915Z,99.90
2018-10-21T05:50:26.675Z,99.90
2018-10-21T05:52:56.395Z,99.90
2018-10-21T05:55:26.035Z,99.90
2018-10-21T05:57:55.778Z,99.90
2018-10-21T06:00:25.622Z,99.90
2018-10-21T06:02:55.141Z,99.90
2018-10-21T06:05:46.301Z,99.90
2018-10-21T06:08:16.078Z,99.90
2018-10-21T06:10:46.338Z,99.90
2018-10-21T06:13:17.438Z,99.90
2018-10-21T06:15:47.317Z,99.90
2018-10-21T06:18:21.280Z,99.90
2018-10-21T06:20:54.618Z,99.90
2018-10-21T06:23:24.278Z,99.90
2018-10-21T06:25:54.078Z,99.90
2018-10-21T06:28:23.818Z,99.90
2018-10-21T06:30:53.420Z,99.90
2018-10-21T06:33:22.881Z,99.90
2018-10-21T06:35:52.578Z,99.90
2018-10-21T06:38:22.078Z,99.90
2018-10-21T06:40:51.897Z,99.90
2018-10-21T06:43:21.738Z,99.90
2018-10-21T06:45:51.506Z,99.90
2018-10-21T06:48:21.043Z,99.90
2018-10-21T06:50:50.701Z,99.90
2018-10-21T06:53:20.440Z,99.90
2018-10-21T06:55:50.056Z,99.90
2018-10-21T06:58:19.736Z,99.90
2018-10-21T07:00:49.477Z,99.90
2018-10-21T07:03:19.078Z,99.90
2018-10-21T07:06:19.843Z,99.90
2018-10-21T07:08:50.679Z,99.90
2018-10-21T07:11:20.399Z,98.90
2018-10-21T07:13:50.239Z,94.70
2018-10-21T07:16:20.048Z,68.30
2018-10-21T07:18:50.720Z,59.50
2018-10-21T07:21:20.599Z,72.20
2018-10-21T07:23:50.191Z,78.00
2018-10-21T07:26:19.740Z,79.80
2018-10-21T07:28:49.504Z,85.90
2018-10-21T07:31:19.120Z,91.30
2018-10-21T07:33:48.879Z,95.00
2018-10-21T07:36:25.277Z,98.60
2018-10-21T07:38:55.479Z,99.90
2018-10-21T07:41:25.280Z,99.90
2018-10-21T07:43:59.239Z,99.90
2018-10-21T07:46:28.719Z,99.90
2018-10-21T07:49:02.943Z,99.90
2018-10-21T07:51:32.051Z,99.90
2018-10-21T07:54:06.074Z,99.90
2018-10-21T07:56:35.838Z,99.90
2018-10-21T07:59:05.456Z,99.90
2018-10-21T08:01:34.917Z,99.90
2018-10-21T08:04:04.847Z,99.90
2018-10-21T08:06:45.259Z,99.90
2018-10-21T08:09:14.937Z,99.90
2018-10-21T08:11:44.643Z,99.90
2018-10-21T08:14:14.723Z,99.90
2018-10-21T08:16:44.396Z,99.90
2018-10-21T08:19:14.604Z,99.90
2018-10-21T08:21:44.343Z,99.90
2018-10-21T08:24:13.982Z,99.90
2018-10-21T08:26:43.639Z,99.90
2018-10-21T08:29:13.396Z,99.90
2018-10-21T08:31:43.056Z,99.90
2018-10-21T08:34:12.555Z,99.90
2018-10-21T08:36:42.416Z,99.90
2018-10-21T08:39:11.924Z,99.90
2018-10-21T08:41:41.492Z,99.90
2018-10-21T08:44:11.261Z,99.90
2018-10-21T08:46:40.918Z,99.90
2018-10-21T08:49:10.497Z,99.90
2018-10-21T08:51:40.175Z,99.90
2018-10-21T08:54:10.175Z,99.90
2018-10-21T08:56:40.455Z,99.90
2018-10-21T08:59:10.098Z,99.90
2018-10-21T09:01:39.917Z,99.90
2018-10-21T09:04:09.766Z,99.90
2018-10-21T09:06:39.497Z,99.90
2018-10-21T09:09:11.278Z,99.90
2018-10-21T09:11:41.538Z,99.90
2018-10-21T09:16:45.665Z,99.90
2018-10-21T09:19:15.279Z,99.90
2018-10-21T09:21:45.021Z,99.90
2018-10-21T09:24:14.837Z,99.90
2018-10-21T09:26:48.682Z,98.70
2018-10-21T09:29:18.406Z,97.60
2018-10-21T09:31:48.265Z,97.60
2018-10-21T09:34:17.812Z,97.30
2018-10-21T09:36:47.408Z,97.40
2018-10-21T09:39:19.402Z,97.40
2018-10-21T09:41:50.283Z,95.50
2018-10-21T09:44:21.200Z,96.80
2018-10-21T09:46:50.814Z,95.00
2018-10-21T09:49:30.626Z,94.90
2018-10-21T09:52:00.503Z,95.90
2018-10-21T09:54:30.309Z,93.90
2018-10-21T09:56:59.863Z,94.10
2018-10-21T09:59:29.318Z,94.50
2018-10-21T10:02:03.901Z,93.20
2018-10-21T10:07:07.496Z,95.30
2018-10-21T10:09:37.102Z,94.90
2018-10-21T10:12:06.822Z,94.20
2018-10-21T10:14:36.579Z,91.00
2018-10-21T10:17:06.559Z,91.70
2018-10-21T10:19:36.239Z,90.00
2018-10-21T10:22:06.222Z,89.60
2018-10-21T10:24:35.919Z,85.30
2018-10-21T10:27:05.559Z,89.30
2018-10-21T10:29:36.479Z,90.30
2018-10-21T10:32:06.978Z,87.50
2018-10-21T10:34:36.757Z,84.90
2018-10-21T10:37:06.579Z,88.40
2018-10-21T10:39:36.141Z,86.10
2018-10-21T10:42:06.023Z,85.80
2018-10-21T10:44:35.657Z,87.80
2018-10-21T10:47:05.749Z,87.60
2018-10-21T10:49:35.799Z,87.20
2018-10-21T10:52:05.636Z,88.00
2018-10-21T10:54:35.559Z,85.60
2018-10-21T10:57:05.201Z,85.90
2018-10-21T10:59:35.159Z,88.30
2018-10-21T11:02:05.036Z,85.90
2018-10-21T11:04:34.378Z,88.00
2018-10-21T11:07:03.848Z,86.10
2018-10-21T11:09:33.356Z,83.80
2018-10-21T11:12:07.157Z,81.40
2018-10-21T11:14:36.866Z,85.40
2018-10-21T11:17:06.645Z,81.60
2018-10-21T11:19:36.316Z,79.00
2018-10-21T11:22:06.100Z,75.40
2018-10-21T11:24:39.637Z,78.70
2018-10-21T11:27:09.176Z,78.00
2018-10-21T11:29:38.638Z,77.10
2018-10-21T11:32:08.435Z,76.00
2018-10-21T11:34:38.835Z,79.00
2018-10-21T11:37:09.118Z,79.10
2018-10-21T11:39:39.037Z,80.40
2018-10-21T11:42:08.914Z,76.70
2018-10-21T11:44:38.856Z,79.90
2018-10-21T11:47:08.669Z,79.30
2018-10-21T11:49:38.499Z,79.00
2018-10-21T11:52:08.301Z,79.20
2018-10-21T11:54:39.605Z,80.80
2018-10-21T11:57:09.455Z,80.50
2018-10-21T11:59:39.121Z,78.80
2018-10-21T12:02:09.640Z,78.60
2018-10-21T12:04:40.043Z,76.10
2018-10-21T12:07:09.735Z,78.10
2018-10-21T12:09:39.995Z,78.00
2018-10-21T12:12:09.493Z,80.70
2018-10-21T12:14:39.182Z,79.30
2018-10-21T12:17:08.698Z,80.00
2018-10-21T12:19:38.250Z,78.00
2018-10-21T12:22:08.001Z,78.10
2018-10-21T12:24:37.315Z,76.70
2018-10-21T12:27:06.815Z,77.60
2018-10-21T12:29:36.200Z,80.70
2018-10-21T12:32:05.760Z,79.20
2018-10-21T12:34:35.376Z,81.10
2018-10-21T12:37:04.788Z,79.30
2018-10-21T12:39:34.761Z,83.40
2018-10-21T12:42:04.570Z,78.40
2018-10-21T12:44:34.560Z,82.00
2018-10-21T12:47:04.284Z,79.20
2018-10-21T12:49:33.696Z,78.00
2018-10-21T12:52:03.620Z,79.30
2018-10-21T12:54:33.249Z,79.20
2018-10-21T12:57:02.834Z,80.00
2018-10-21T12:59:32.535Z,81.50
2018-10-21T13:02:02.214Z,81.50
2018-10-21T13:04:31.888Z,81.10
2018-10-21T13:07:01.798Z,84.90
2018-10-21T13:09:32.621Z,83.50
2018-10-21T13:12:02.250Z,85.40
2018-10-21T13:14:32.778Z,85.60
2018-10-21T13:17:02.598Z,86.40
2018-10-21T13:19:45.952Z,88.80
2018-10-21T13:22:15.759Z,85.70
2018-10-21T13:24:45.249Z,85.50
2018-10-21T13:27:15.931Z,85.80
2018-10-21T13:29:46.399Z,87.90
2018-10-21T13:32:15.953Z,87.10
2018-10-21T13:34:45.726Z,87.80
2018-10-21T13:37:15.596Z,88.30
2018-10-21T13:39:45.443Z,89.40
2018-10-21T13:42:15.286Z,85.00
2018-10-21T13:44:48.884Z,84.30
2018-10-21T13:47:19.209Z,87.60
2018-10-21T13:49:48.772Z,85.70
2018-10-21T13:52:22.324Z,83.90
2018-10-21T13:54:52.244Z,86.10
2018-10-21T13:57:22.045Z,85.10
2018-10-21T13:59:51.824Z,85.80
2018-10-21T14:02:21.382Z,86.40
2018-10-21T14:04:51.259Z,84.20
2018-10-21T14:07:21.064Z,87.10
2018-10-21T14:09:51.195Z,88.80
2018-10-21T14:12:20.855Z,86.20
2018-10-21T14:14:51.111Z,84.50
2018-10-21T14:17:21.423Z,85.10
2018-10-21T14:19:55.421Z,86.50
2018-10-21T14:22:25.068Z,86.90
2018-10-21T14:24:54.795Z,89.10
2018-10-21T14:27:24.590Z,87.80
2018-10-21T14:29:54.280Z,87.40
2018-10-21T14:32:24.136Z,88.10
2018-10-21T14:34:53.816Z,89.20
2018-10-21T14:37:23.437Z,88.60
2018-10-21T14:39:54.496Z,88.30
2018-10-21T14:42:25.418Z,89.90
2018-10-21T14:44:59.704Z,88.70
2018-10-21T14:47:30.276Z,89.70
2018-10-21T14:50:00.045Z,89.00
2018-10-21T14:52:29.856Z,87.40
2018-10-21T14:54:59.892Z,89.90
2018-10-21T14:57:29.996Z,89.30
2018-10-21T15:00:01.129Z,89.40
2018-10-21T15:02:31.815Z,89.70
2018-10-21T15:05:01.504Z,89.80
2018-10-21T15:07:31.303Z,90.20
2018-10-21T15:10:02.419Z,89.70
2018-10-21T15:12:36.299Z,90.10
2018-10-21T15:15:06.499Z,90.70
2018-10-21T15:17:36.357Z,90.00
2018-10-21T15:20:08.115Z,90.40
2018-10-21T15:22:38.941Z,89.70
2018-10-21T15:25:10.600Z,90.00
2018-10-21T15:27:42.535Z,90.30
2018-10-21T15:30:12.986Z,89.40
2018-10-21T15:32:43.180Z,91.40
2018-10-21T15:35:13.082Z,90.60
2018-10-21T15:37:42.859Z,90.30
2018-10-21T15:40:13.543Z,91.20
2018-10-21T15:42:44.090Z,91.70
2018-10-21T15:45:14.099Z,91.40
2018-10-21T15:47:43.819Z,91.80
2018-10-21T15:50:13.948Z,92.20
2018-10-21T15:52:43.623Z,92.90
2018-10-21T15:55:13.759Z,93.00
2018-10-21T15:57:44.419Z,92.20
2018-10-21T16:00:19.916Z,91.80
2018-10-21T16:02:50.177Z,92.70
2018-10-21T16:05:20.099Z,92.80
2018-10-21T16:07:51.140Z,92.40
2018-10-21T16:10:20.904Z,93.20
2018-10-21T16:12:51.577Z,93.30
2018-10-21T16:15:22.456Z,93.90
2018-10-21T16:17:53.267Z,93.90
2018-10-21T16:20:24.136Z,94.70
2018-10-21T16:22:55.176Z,95.20
2018-10-21T16:25:24.919Z,95.50
2018-10-21T16:27:56.243Z,96.20
2018-10-21T16:30:26.797Z,96.40
2018-10-21T16:32:57.214Z,96.90
2018-10-21T16:35:27.696Z,97.50
2018-10-21T16:37:58.478Z,97.40
2018-10-21T16:40:28.196Z,98.30
2018-10-21T16:42:58.956Z,98.80
2018-10-21T16:45:28.498Z,98.60
2018-10-21T16:47:58.181Z,99.40
2018-10-21T16:50:28.080Z,99.40
2018-10-21T16:52:58.476Z,98.90
2018-10-21T16:55:28.029Z,98.20
2018-10-21T16:57:57.641Z,98.10
2018-10-21T17:00:28.627Z,98.10
2018-10-21T17:03:00.953Z,98.30
2018-10-21T17:05:30.595Z,99.90
2018-10-21T17:08:05.558Z,99.90
2018-10-21T17:10:36.564Z,99.90
2018-10-21T17:13:06.027Z,99.90
2018-10-21T17:15:35.935Z,99.90
2018-10-21T17:18:05.680Z,99.90
2018-10-21T17:20:35.881Z,99.90
2018-10-21T17:23:06.717Z,99.90
2018-10-21T17:25:36.239Z,99.90
2018-10-21T17:28:07.162Z,99.90
2018-10-21T17:30:40.401Z,99.90
2018-10-21T17:33:10.260Z,99.90
2018-10-21T17:35:40.295Z,99.90
2018-10-21T17:38:10.097Z,99.90
2018-10-21T17:40:40.645Z,99.90
2018-10-21T17:43:10.344Z,99.90
2018-10-21T17:45:40.618Z,99.90
2018-10-21T17:48:10.697Z,99.90
2018-10-21T17:50:40.376Z,99.90
2018-10-21T17:53:11.517Z,99.90
2018-10-21T17:55:41.576Z,99.90
2018-10-21T17:58:11.293Z,99.90
2018-10-21T18:00:43.181Z,99.90
2018-10-21T18:03:14.859Z,99.90
2018-10-21T18:05:48.638Z,99.90
2018-10-21T18:08:25.738Z,99.90
2018-10-21T18:10:57.417Z,99.90
2018-10-21T18:13:29.565Z,99.90
2018-10-21T18:15:59.216Z,99.90
2018-10-21T18:18:30.237Z,99.90
2018-10-21T18:21:01.035Z,99.90
2018-10-21T18:23:34.855Z,99.90
2018-10-21T18:26:04.512Z,99.90
2018-10-21T18:28:34.404Z,99.90
2018-10-21T18:31:04.232Z,99.90
2018-10-21T18:33:35.943Z,99.90
2018-10-21T18:36:05.896Z,99.90
2018-10-21T18:38:35.816Z,99.90
2018-10-21T18:41:05.851Z,99.90
2018-10-21T18:43:35.678Z,99.90
2018-10-21T18:46:05.883Z,99.90
2018-10-21T18:48:35.664Z,99.90
2018-10-21T18:51:05.542Z,99.90
2018-10-21T18:53:35.438Z,99.90
2018-10-21T18:56:05.057Z,99.90
2018-10-21T18:58:35.749Z,99.90
2018-10-21T19:01:10.862Z,99.90
2018-10-21T19:03:40.518Z,99.90
2018-10-21T19:06:10.162Z,99.90
2018-10-21T19:08:39.788Z,99.90
2018-10-21T19:11:09.510Z,99.90
2018-10-21T19:13:40.821Z,99.90
2018-10-21T19:16:10.585Z,99.90
2018-10-21T19:18:40.121Z,99.90
2018-10-21T19:21:09.740Z,99.90
2018-10-21T19:23:39.664Z,99.90
2018-10-21T19:26:09.361Z,99.90
2018-10-21T19:28:39.108Z,99.90
2018-10-21T19:31:08.739Z,99.90
2018-10-21T19:33:38.228Z,99.90
2018-10-21T19:36:08.128Z,99.90
2018-10-21T19:38:37.801Z,99.90
2018-10-21T19:41:07.520Z,99.90
2018-10-21T19:43:37.699Z,99.90
2018-10-21T19:46:07.386Z,99.90
2018-10-21T19:48:37.204Z,99.90
2018-10-21T19:51:07.021Z,99.90
2018-10-21T19:56:10.309Z,99.90
2018-10-21T19:58:40.614Z,99.90
2018-10-21T20:01:10.274Z,99.90
2018-10-21T20:03:40.186Z,99.90
2018-10-21T20:06:09.974Z,99.90
2018-10-21T20:08:39.854Z,99.90
2018-10-21T20:11:09.534Z,99.90
2018-10-21T20:13:40.563Z,99.90
2018-10-21T20:16:10.305Z,99.90
2018-10-21T20:18:40.196Z,99.90
2018-10-21T20:21:09.895Z,99.90
2018-10-21T20:23:39.434Z,99.90
2018-10-21T20:26:09.055Z,99.90
2018-10-21T20:28:38.796Z,99.90
2018-10-21T20:31:08.985Z,99.90
2018-10-21T20:33:39.076Z,99.90
2018-10-21T20:36:08.596Z,99.90
2018-10-21T20:38:38.595Z,99.90
2018-10-21T20:41:08.475Z,99.90
2018-10-21T20:43:38.134Z,99.90
2018-10-21T20:46:07.451Z,99.90
2018-10-21T20:48:37.431Z,99.90
2018-10-21T20:51:06.753Z,99.90
2018-10-21T20:53:36.146Z,99.90
2018-10-21T20:56:05.640Z,99.90
2018-10-21T20:58:34.916Z,99.90
2018-10-21T21:01:04.676Z,99.90
2018-10-21T21:03:34.519Z,99.90
2018-10-21T21:06:04.274Z,99.90
2018-10-21T21:08:33.995Z,99.90
2018-10-21T21:11:03.701Z,99.90
2018-10-21T21:13:37.555Z,99.90
2018-10-21T21:16:08.523Z,99.90
2018-10-21T21:18:38.217Z,99.90
2018-10-21T21:21:08.236Z,99.90
2018-10-21T21:23:38.015Z,99.90
2018-10-21T21:26:07.216Z,99.90
2018-10-21T21:28:36.417Z,99.90
2018-10-21T21:31:05.947Z,99.90
2018-10-21T21:33:35.134Z,99.90
2018-10-21T21:36:12.921Z,99.90
2018-10-21T21:38:42.108Z,99.90
2018-10-21T21:41:11.430Z,99.90
2018-10-21T21:43:40.598Z,99.90
2018-10-21T21:46:10.720Z,99.90
2018-10-21T21:48:40.456Z,99.90
2018-10-21T21:51:09.897Z,99.90
2018-10-21T21:53:39.620Z,99.90
2018-10-21T21:56:09.341Z,99.90
2018-10-21T21:58:38.883Z,99.90
2018-10-21T22:01:08.524Z,99.90
2018-10-21T22:03:39.492Z,99.90
2018-10-21T22:06:09.075Z,99.90
2018-10-21T22:08:38.848Z,99.90
2018-10-21T22:11:08.568Z,99.90
2018-10-21T22:13:38.710Z,99.90
2018-10-21T22:16:08.153Z,99.90
2018-10-21T22:18:39.200Z,99.90
2018-10-21T22:21:08.855Z,99.90
2018-10-21T22:23:38.936Z,99.90
2018-10-21T22:26:08.737Z,99.90
2018-10-21T22:28:38.520Z,99.90
2018-10-21T22:31:07.961Z,99.90
2018-10-21T22:33:37.563Z,99.90
2018-10-21T22:36:07.426Z,99.90
2018-10-21T22:38:37.184Z,99.90
2018-10-21T22:41:08.506Z,99.90
2018-10-21T22:43:38.047Z,99.90
2018-10-21T22:46:07.885Z,99.90
2018-10-21T22:48:37.597Z,99.90
2018-10-21T22:51:07.969Z,99.90
2018-10-21T22:53:37.751Z,99.90
2018-10-21T22:56:07.793Z,99.90
2018-10-21T22:58:37.352Z,99.90
2018-10-21T23:03:42.034Z,99.90
2018-10-21T23:06:11.733Z,99.90
2018-10-21T23:08:49.669Z,99.90
2018-10-21T23:11:19.648Z,99.90
2018-10-21T23:13:49.267Z,99.90
2018-10-21T23:16:19.462Z,99.90
2018-10-21T23:18:49.221Z,99.90
2018-10-21T23:21:18.787Z,99.90
2018-10-21T23:23:48.517Z,99.90
2018-10-21T23:26:18.364Z,99.90
2018-10-21T23:28:48.042Z,99.90
2018-10-21T23:31:19.139Z,99.90
2018-10-21T23:33:48.900Z,99.90
2018-10-21T23:36:20.619Z,99.90
2018-10-21T23:38:50.263Z,99.90
2018-10-21T23:41:19.819Z,99.90
2018-10-21T23:43:54.639Z,99.90
2018-10-21T23:46:24.399Z,99.90
2018-10-21T23:48:53.779Z,99.90
2018-10-21T23:51:23.266Z,99.90
2018-10-21T23:53:52.878Z,99.90
2018-10-21T23:58:56.158Z,99.90
